• Join FlightAware (Why Join?)
  • Login
  • US Flag 
Gobble Gobble! 
06:34PM EST


 

Airport Tracker/Info


-or-


 

Live Flight TrackerFlight Track Log ✈ USC105 ✈ 18-Apr-2013 ✈ KYIP - KDPA

Flight Track Log - Related Links

Times and Time Zones

All times are in EDT time to prevent confusion due to time zone crossing. See the USC105 flight status page for this flight to view local times or setup timezone preferences in your user account.

Time Position Orientation Groundspeed Altitude Reporting Facility
EDT Latitude Longitude Course Direction KTS MPH feet Rate Location/Type
12:15AM 42.2175 -83.5606 225° Southwest 115 132 1,500  Level FAA TRACON SMA TRACON (SMA)
12:16AM 42.2092 -83.5736 229° Southwest 120 138 1,700 600 Climbing FAA TRACON SMA TRACON (SMA)
12:16AM 42.2047 -83.5869 246° West 128 147 1,900 720 Climbing FAA TRACON SMA TRACON (SMA)
12:16AM 42.2056 -83.6014 274° West 121 139 2,200 1,020 Climbing FAA TRACON SMA TRACON (SMA)
12:17AM 42.2050 -83.6189 268° West 117 135 2,600 840 Climbing FAA TRACON SMA TRACON (SMA)
12:17AM 42.2036 -83.6328 262° West 120 138 2,800 600 Climbing FAA TRACON SMA TRACON (SMA)
12:17AM 42.2025 -83.6464 264° West 121 139 3,000 600 Climbing FAA TRACON SMA TRACON (SMA)
12:18AM 42.2011 -83.6647 264° West 125 144 3,200 720 Climbing FAA TRACON SMA TRACON (SMA)
12:18AM 42.2008 -83.6797 269° West 127 146 3,500 720 Climbing FAA TRACON SMA TRACON (SMA)
12:18AM 42.2006 -83.6981 269° West 127 146 3,700 600 Climbing FAA TRACON SMA TRACON (SMA)
12:19AM 42.2000 -83.7128 267° West 128 147 3,900 720 Climbing FAA TRACON SMA TRACON (SMA)
12:19AM 42.1994 -83.7278 267° West 128 147 4,200 720 Climbing FAA TRACON SMA TRACON (SMA)
12:19AM 42.1986 -83.7431 266° West 129 148 4,400 720 Climbing FAA TRACON SMA TRACON (SMA)
12:20AM 42.1986 -83.7614 270° West 126 145 4,700 900 Climbing FAA TRACON SMA TRACON (SMA)
12:20AM 42.1983 -83.7753 268° West 122 140 5,000 840 Climbing FAA TRACON SMA TRACON (SMA)
12:20AM 42.1972 -83.7889 264° West 120 138 5,300 720 Climbing FAA TRACON SMA TRACON (SMA)
12:21AM 42.1956 -83.8067 263° West 122 140 5,500 420 Climbing FAA TRACON SMA TRACON (SMA)
12:21AM 42.1944 -83.8211 264° West 125 144 5,600 420 Climbing FAA TRACON SMA TRACON (SMA)
12:21AM 42.1942 -83.8364 269° West 129 148 5,800 600 Climbing FAA TRACON SMA TRACON (SMA)
12:22AM 42.1939 -83.8561 269° West 134 154 6,000 300 Climbing FAA TRACON SMA TRACON (SMA)
12:22AM 42.1922 -83.8722 262° West 141 162 6,000  Level FAA TRACON SMA TRACON (SMA)
12:22AM 42.1911 -83.8906 265° West 155 178 6,000  Level FAA TRACON SMA TRACON (SMA)
12:23AM 42.1903 -83.9125 267° West 151 174 6,000  Level FAA TRACON SMA TRACON (SMA)
12:23AM 42.1897 -83.9283 267° West 137 158 6,000  Level FAA TRACON SMA TRACON (SMA)
12:23AM 42.1889 -83.9472 267° West 134 154 6,000  Level FAA TRACON SMA TRACON (SMA)
12:24AM 42.1875 -83.9631 263° West 136 157 6,000 300 Level FAA TRACON SMA TRACON (SMA)
12:24AM 42.1861 -83.9783 263° West 134 154 6,200  Climbing FAA TRACON SMA TRACON (SMA)
12:24AM 42.1853 -83.9964 266° West 129 148 6,000 -300 Descending FAA TRACON SMA TRACON (SMA)
12:25AM 42.1861 -84.0108 274° West 126 145 6,000  Level FAA TRACON SMA TRACON (SMA)
12:25AM 42.1897 -84.0267 287° West 137 158 6,000  Level FAA TRACON SMA TRACON (SMA)
12:25AM 42.1903 -84.0428 273° West 144 166 6,000  Level FAA TRACON SMA TRACON (SMA)
12:26AM 42.1878 -84.0628 260° West 143 165 6,000  Level FAA TRACON SMA TRACON (SMA)
12:26AM 42.1853 -84.0792 258° West 145 167 6,000  Level FAA TRACON SMA TRACON (SMA)
12:26AM 42.1825 -84.0961 258° West 148 170 6,000  Level FAA TRACON SMA TRACON (SMA)
12:27AM 42.1819 -84.1181 268° West 153 176 6,000  Level FAA TRACON SMA TRACON (SMA)
12:27AM 42.1817 -84.1361 269° West 155 178 6,000  Level FAA TRACON SMA TRACON (SMA)
12:27AM 42.1803 -84.1583 265° West 155 178 6,000  Level FAA TRACON SMA TRACON (SMA)
12:28AM 42.1789 -84.1764 264° West 155 178 6,000  Level FAA TRACON SMA TRACON (SMA)
12:28AM 42.1775 -84.1939 264° West 155 178 6,000  Level FAA TRACON SMA TRACON (SMA)
12:28AM 42.1756 -84.2164 263° West 156 180 6,000  Level FAA TRACON SMA TRACON (SMA)
12:29AM 42.1747 -84.2350 267° West 158 182 6,000  Level FAA TRACON SMA TRACON (SMA)
12:29AM 42.1739 -84.2533 266° West 159 183 6,000  Level FAA TRACON SMA TRACON (SMA)
12:29AM 42.1725 -84.2764 265° West 160 184 6,000  Level FAA TRACON SMA TRACON (SMA)
12:30AM 42.1714 -84.2947 265° West 159 183 6,000  Level FAA TRACON SMA TRACON (SMA)
12:30AM 42.1703 -84.3125 265° West 157 181 6,000  Level FAA TRACON SMA TRACON (SMA)
12:30AM 42.1694 -84.3342 267° West 153 176 6,000  Level FAA TRACON SMA TRACON (SMA)
12:31AM 42.1686 -84.3514 266° West 151 174 6,000  Level FAA TRACON SMA TRACON (SMA)
12:31AM 42.1681 -84.3686 268° West 150 173 6,000  Level FAA TRACON SMA TRACON (SMA)
12:31AM 42.1672 -84.3861 266° West 151 174 6,000  Level FAA TRACON SMA TRACON (SMA)
12:32AM 42.1656 -84.4072 264° West 148 170 6,000  Level FAA TRACON SMA TRACON (SMA)
12:32AM 42.1647 -84.4236 266° West 145 167 6,000  Level FAA TRACON SMA TRACON (SMA)
12:32AM 42.1639 -84.4403 266° West 145 167 6,000  Level FAA TRACON SMA TRACON (SMA)
12:33AM 42.1636 -84.4611 269° West 145 167 6,000  Level FAA TRACON SMA TRACON (SMA)
12:33AM 42.1631 -84.4775 267° West 143 165 6,000  Level FAA TRACON SMA TRACON (SMA)
12:33AM 42.1617 -84.4975 265° West 142 163 6,000  Level FAA TRACON SMA TRACON (SMA)
12:34AM 42.1611 -84.5139 267° West 141 162 6,000  Level FAA TRACON SMA TRACON (SMA)
12:34AM 42.1603 -84.5300 266° West 141 162 6,000  Level FAA TRACON SMA TRACON (SMA)
12:34AM 42.1594 -84.5422 265° West 141 162 6,000  Level FAA TRACON SMA TRACON (SMA)
12:35AM 42.1594 -84.5422 340° North 141 162 6,000 -60 Level FAA TRACON SMA TRACON (SMA)
12:36AM 42.1556 -84.6394 267° West 141 162 5,900 -60 Descending Chicago Center
12:37AM 42.1514 -84.6914 264° West 141 162 5,900  Level Chicago Center
12:38AM 42.1500 -84.7419 268° West 138 159 5,900  Level Chicago Center
12:39AM 42.1458 -84.7922 264° West 136 157 5,900  Level Chicago Center
12:40AM 42.1436 -84.8436 267° West 137 158 5,900  Level Chicago Center
12:41AM 42.1411 -84.8931 266° West 135 155 5,900  Level Chicago Center
12:42AM 42.1383 -84.9439 266° West 136 157 5,900  Level Chicago Center
12:43AM 42.1356 -84.9961 266° West 140 161 5,900  Level Chicago Center
12:44AM 42.1333 -85.0467 267° West 138 159 5,900  Level Chicago Center
12:45AM 42.1300 -85.0975 265° West 137 158 5,900  Level Chicago Center
12:46AM 42.1261 -85.1561 265° West 133 153 5,900  Level Chicago Center
12:47AM 42.1236 -85.2078 266° West 137 158 5,900  Level Chicago Center
12:48AM 42.1208 -85.2586 266° West 137 158 5,900  Level Chicago Center
12:49AM 42.1181 -85.3097 266° West 138 159 5,900  Level Chicago Center
12:50AM 42.1144 -85.3603 265° West 137 158 5,900  Level Chicago Center
12:51AM 42.1119 -85.4106 266° West 136 157 5,900  Level Chicago Center
12:52AM 42.1089 -85.4606 265° West 135 155 5,900  Level Chicago Center
12:53AM 42.1050 -85.5106 264° West 135 155 5,900  Level Chicago Center
12:54AM 42.1025 -85.5636 266° West 140 161 5,900  Level Chicago Center
12:55AM 42.0989 -85.6167 265° West 142 163 5,900  Level Chicago Center
12:56AM 42.0956 -85.6703 265° West 144 166 6,000  Climbing Chicago Center
12:57AM 42.0931 -85.7239 266° West 144 166 5,900  Descending Chicago Center
12:58AM 42.0933 -85.7736 270° West 139 160 6,100  Climbing Chicago Center
12:59AM 42.0961 -85.8183 275° West 124 143 5,900 -180 Descending Chicago Center
01:00AM 42.0914 -85.8714 263° West 120 138 5,800  Descending Chicago Center
01:01AM 42.0906 -85.9142 269° West 117 135 5,900  Climbing Chicago Center
01:02AM 42.0850 -85.9558 260° West 113 130 5,900  Level Chicago Center
01:03AM 42.0767 -85.9997 256° West 119 137 5,900  Level Chicago Center
01:04AM 42.0733 -86.0422 264° West 118 136 6,000  Climbing Chicago Center
01:05AM 42.0700 -86.0842 264° West 113 130 6,000  Level Chicago Center
01:06AM 42.0667 -86.1269 264° West 115 132 6,000 -60 Level Chicago Center
01:07AM 42.0639 -86.1719 265° West 119 137 5,900 -120 Descending Chicago Center
01:09AM 42.0625 -86.2158 268° West 119 137 5,800  Descending Chicago Center
01:10AM 42.0589 -86.2660 265° West  Level FlightAware Approximate
01:12AM 42.0531 -86.3311 264° West 104 120 5,900  Level Chicago Center
01:13AM 42.0503 -86.3806 266° West 124 143 6,000  Climbing Chicago Center
01:14AM 42.0472 -86.4367 266° West 144 166 6,000  Level Chicago Center
01:15AM 42.0419 -86.4931 263° West 151 174 6,000  Level Chicago Center
01:16AM 42.0378 -86.5478 264° West 149 171 6,000  Level Chicago Center
01:17AM 42.0332 -86.6168 264° West  Level FlightAware Approximate
01:17AM 42.0344 -86.6025 265° West 147 169 6,000  Level Chicago Center
01:18AM 42.0317 -86.6536 266° West 138 159 5,900 -60 Descending Chicago Center
01:19AM 42.0289 -86.7047 266° West 123 142 5,900  Level Chicago Center
01:20AM 42.0253 -86.7489 264° West 120 138 6,000  Climbing Chicago Center
01:21AM 42.0208 -86.7997 263° West 137 158 5,900  Descending Chicago Center
01:22AM 42.0167 -86.8525 264° West 142 163 6,000  Climbing Chicago Center
01:23AM 42.0133 -86.9072 265° West 146 168 5,900 -60 Descending Chicago Center
01:24AM 42.0094 -86.9608 264° West 145 167 5,900  Level Chicago Center
01:25AM 42.0053 -87.0136 264° West 144 166 5,900  Level Chicago Center
01:26AM 42.0014 -87.0669 264° West 145 167 5,900  Level Chicago Center
01:27AM 41.9972 -87.1197 264° West 143 165 6,000  Climbing Chicago Center
01:28AM 41.9933 -87.1733 264° West 146 168 6,000  Level Chicago Center
01:29AM 41.9903 -87.2258 266° West 143 165 6,000 -60 Level Chicago Center
01:30AM 41.9850 -87.2908 264° West 146 168 5,900 -60 Descending Chicago Center
01:31AM 41.9811 -87.3431 264° West 143 165 5,900 60 Level Chicago Center
01:31AM 41.9833 -87.3833 274° West 144 166 6,000 60 Climbing Chicago TRACON
01:32AM 41.9667 -87.4333 246° West 146 168 6,000 -60 Level Chicago TRACON
01:33AM 41.9667 -87.4833 270° West 146 168 5,900 -60 Descending Chicago TRACON
01:34AM 41.9667 -87.5333 270° West 142 163 5,900  Level Chicago TRACON
01:35AM 41.9667 -87.5833 270° West 145 167 5,900  Level Chicago TRACON
01:36AM 41.9500 -87.6333 246° West 149 171 5,900  Level Chicago TRACON
01:37AM 41.9500 -87.6833 270° West 143 165 5,900  Level Chicago TRACON
01:38AM 41.9500 -87.7500 270° West 142 163 6,000  Climbing Chicago TRACON
01:39AM 41.9500 -87.8000 270° West 142 163 5,900 -60 Descending Chicago TRACON
01:40AM 41.9333 -87.8500 246° West 139 160 5,900  Level Chicago TRACON
01:41AM 41.9333 -87.9000 270° West 142 163 5,900  Level Chicago TRACON
01:42AM 41.9333 -87.9500 270° West 145 167 5,900  Level Chicago TRACON
01:43AM 41.9333 -88.0000 270° West 135 155 5,900 -600 Level Chicago TRACON
01:44AM 41.9167 -88.0500 246° West 154 177 4,800 -960 Descending Chicago TRACON
01:45AM 41.9167 -88.1000 270° West 145 167 4,000 -840 Descending Chicago TRACON
01:46AM 41.9153 -88.1308 267° West 147 169 3,500 -1,080 Descending Chicago Center
01:47AM 41.9114 -88.1811 264° West 144 166 2,300 -1,200 Descending Chicago Center
01:48AM 41.9103 -88.2281 268° West 124 143 1,100 -720 Descending Chicago Center
01:49AM 41.9094 -88.2592 268° West 117 135 900 -240 Descending Chicago Center